Papere Vagabonde

Aviosuperficie Caposile LIKI

Pista 04


Pista 22

Le immagini vengono aggiornate ogni minuto
Cliccare sull'immagine per l'ingrandimento.

METAR LIPZ

LIPZ 240450Z 11002KT 9999 SCT045 15/12 Q1018 NOSIG

TAF LIPZ 232300Z 2400/2506 VRB05KT 9999 SCT040
  BECMG 2410/2412 16010KT
  BECMG 2418/2421 03008KT


      

Alba: 06:59
Tramonto: 19:03

LOW LEVEL SIGWX CHART

ALL WEATHER DATA